createdAt,value
2023-03-16T00:01:06.231Z,99780.22
2023-03-16T00:03:35.010Z,99782.66
2023-03-16T00:06:03.021Z,99775.28
2023-03-16T00:08:32.310Z,99767.63
2023-03-16T00:11:00.187Z,99763.63
2023-03-16T00:13:28.123Z,99776.31
2023-03-16T00:15:57.347Z,99778.03
2023-03-16T00:18:27.306Z,99774.78
2023-03-16T00:20:56.885Z,99774.78
2023-03-16T00:23:27.240Z,99786.31
2023-03-16T00:25:56.979Z,99789.44
2023-03-16T00:28:25.219Z,99788.59
2023-03-16T00:30:53.258Z,99794.22
2023-03-16T00:33:21.162Z,99793.88
2023-03-16T00:35:50.236Z,99795.13
2023-03-16T00:38:18.873Z,99797.25
2023-03-16T00:40:47.235Z,99803.91
2023-03-16T00:43:18.686Z,99798.09
2023-03-16T00:45:47.031Z,99794.53
2023-03-16T00:48:14.982Z,99797.59
2023-03-16T00:50:43.427Z,99806.88
2023-03-16T00:53:11.818Z,99800.25
2023-03-16T00:55:39.733Z,99806.13
2023-03-16T00:58:07.637Z,99805.38
2023-03-16T01:00:37.024Z,99809.38
2023-03-16T01:03:05.059Z,99805.94
2023-03-16T01:05:33.773Z,99805.94
2023-03-16T01:08:02.822Z,99816.59
2023-03-16T01:10:30.713Z,99811.38
2023-03-16T01:12:58.656Z,99820.41
2023-03-16T01:15:26.586Z,99821.94
2023-03-16T01:17:56.983Z,99794.63
2023-03-16T01:20:24.984Z,99826.00
2023-03-16T01:22:53.443Z,99821.94
2023-03-16T01:25:21.642Z,99817.84
2023-03-16T01:27:49.492Z,99819.53
2023-03-16T01:30:17.465Z,99823.63
2023-03-16T01:32:46.026Z,99807.09
2023-03-16T01:35:16.294Z,99822.28
2023-03-16T01:37:44.385Z,99817.34
2023-03-16T01:40:17.874Z,99824.75
2023-03-16T01:42:47.429Z,99824.94
2023-03-16T01:45:53.857Z,99824.19
2023-03-16T01:48:26.110Z,99829.13
2023-03-16T01:50:57.624Z,99832.00
2023-03-16T01:53:26.666Z,99834.38
2023-03-16T01:55:55.592Z,99833.31
2023-03-16T01:58:24.051Z,99828.91
2023-03-16T02:00:51.982Z,99839.78
2023-03-16T02:03:23.910Z,99839.72
2023-03-16T02:06:10.837Z,99846.97
2023-03-16T02:08:45.288Z,99852.75
2023-03-16T02:11:18.029Z,99856.16
2023-03-16T02:14:10.254Z,99856.94
2023-03-16T02:16:38.809Z,99858.84
2023-03-16T02:19:13.110Z,99866.25
2023-03-16T02:21:49.994Z,99874.41
2023-03-16T02:24:18.008Z,99872.50
2023-03-16T02:26:50.065Z,99874.88
2023-03-16T02:29:45.093Z,99878.06
2023-03-16T02:32:15.467Z,99878.81
2023-03-16T02:34:44.095Z,99885.06
2023-03-16T02:37:13.937Z,99885.34
2023-03-16T02:39:44.106Z,99882.97
2023-03-16T02:42:17.858Z,99883.53
2023-03-16T02:44:49.756Z,99890.19
2023-03-16T02:47:28.616Z,99883.16
2023-03-16T02:49:56.672Z,99894.94
2023-03-16T02:52:24.622Z,99898.16
2023-03-16T02:54:52.653Z,99893.22
2023-03-16T02:57:21.151Z,99893.22
2023-03-16T02:59:50.609Z,99900.72
2023-03-16T03:02:18.912Z,99896.66
2023-03-16T03:04:47.039Z,99901.59
2023-03-16T03:07:15.797Z,99893.03
2023-03-16T03:09:58.901Z,99911.47
2023-03-16T03:12:26.972Z,99914.69
2023-03-16T03:14:57.892Z,99918.53
2023-03-16T03:17:29.997Z,99924.88
2023-03-16T03:19:59.702Z,99928.22
2023-03-16T03:22:28.035Z,99928.31
2023-03-16T03:24:55.932Z,99934.00
2023-03-16T03:27:24.567Z,99930.63
2023-03-16T03:29:54.523Z,99941.09
2023-03-16T03:32:23.766Z,99942.91
2023-03-16T03:34:52.943Z,99948.78
2023-03-16T03:37:20.829Z,99948.94
2023-03-16T03:39:49.660Z,99958.34
2023-03-16T03:42:18.350Z,99955.50
2023-03-16T03:44:46.345Z,99954.56
2023-03-16T03:47:14.323Z,99950.78
2023-03-16T03:49:43.590Z,99961.22
2023-03-16T03:52:12.267Z,99960.72
2023-03-16T03:54:40.232Z,99969.94
2023-03-16T03:57:14.078Z,99966.34
2023-03-16T03:59:43.954Z,99974.72
2023-03-16T04:02:30.688Z,99973.94
2023-03-16T04:05:00.313Z,99976.97
2023-03-16T04:07:29.724Z,99976.44
2023-03-16T04:10:02.738Z,99967.13
2023-03-16T04:12:38.440Z,99986.53
2023-03-16T04:15:09.411Z,99990.50
2023-03-16T04:17:47.103Z,100000.41
2023-03-16T04:20:19.522Z,99996.56
2023-03-16T04:22:48.360Z,99997.53
2023-03-16T04:25:18.896Z,99991.81
2023-03-16T04:27:47.588Z,99994.09
2023-03-16T04:30:17.633Z,100002.97
2023-03-16T04:32:51.387Z,99991.44
2023-03-16T04:35:23.161Z,100004.00
2023-03-16T04:37:55.230Z,99992.63
2023-03-16T04:40:30.367Z,99991.66
2023-03-16T04:43:07.112Z,99994.03
2023-03-16T04:45:36.064Z,99985.56
2023-03-16T04:48:04.096Z,99994.88
2023-03-16T04:50:33.691Z,100005.31
2023-03-16T04:53:01.578Z,100001.84
2023-03-16T04:55:31.031Z,99998.00
2023-03-16T04:57:59.395Z,99996.41
2023-03-16T05:00:29.919Z,100003.91
2023-03-16T05:03:05.577Z,100001.16
2023-03-16T05:05:35.307Z,100003.63
2023-03-16T05:08:06.037Z,100006.09
2023-03-16T05:10:36.252Z,100009.72
2023-03-16T05:13:04.252Z,100009.72
2023-03-16T05:15:33.323Z,100017.38
2023-03-16T05:18:16.377Z,100022.63
2023-03-16T05:20:46.394Z,100026.13
2023-03-16T05:23:16.756Z,100024.63
2023-03-16T05:25:48.058Z,100036.41
2023-03-16T05:28:17.672Z,100037.44
2023-03-16T05:31:04.422Z,100037.84
2023-03-16T05:33:39.340Z,100041.25
2023-03-16T05:36:13.123Z,100047.06
2023-03-16T05:38:43.770Z,100051.25
2023-03-16T05:41:15.518Z,100055.53
2023-03-16T05:44:04.378Z,100060.63
2023-03-16T05:46:46.251Z,100062.16
2023-03-16T05:49:14.238Z,100070.81
2023-03-16T05:51:43.606Z,100060.63
2023-03-16T05:54:11.609Z,100072.22
2023-03-16T05:56:45.670Z,100073.16
2023-03-16T05:59:13.802Z,100069.13
2023-03-16T06:01:43.214Z,100085.97
2023-03-16T06:04:11.758Z,100081.53
2023-03-16T06:06:43.578Z,100092.28
2023-03-16T06:09:18.386Z,100087.81
2023-03-16T06:11:46.768Z,100089.34
2023-03-16T06:14:17.170Z,100093.03
2023-03-16T06:16:45.817Z,100094.97
2023-03-16T06:19:14.967Z,100098.28
2023-03-16T06:21:45.123Z,100107.41
2023-03-16T06:24:13.798Z,100109.19
2023-03-16T06:26:41.831Z,100106.25
2023-03-16T06:29:12.964Z,100110.44
2023-03-16T06:31:42.257Z,100114.16
2023-03-16T06:34:11.611Z,100126.22
2023-03-16T06:36:40.118Z,100123.59
2023-03-16T06:39:14.684Z,100127.59
2023-03-16T06:41:46.241Z,100127.78
2023-03-16T06:44:16.582Z,100132.06
2023-03-16T06:46:57.266Z,100134.03
2023-03-16T06:49:25.100Z,100134.44
2023-03-16T06:51:53.923Z,100144.53
2023-03-16T06:54:23.816Z,100149.47
2023-03-16T06:56:52.397Z,100154.97
2023-03-16T06:59:20.866Z,100152.03
2023-03-16T07:01:50.314Z,100153.44
2023-03-16T07:04:18.371Z,100152.13
2023-03-16T07:06:46.474Z,100153.91
2023-03-16T07:09:14.377Z,100167.53
2023-03-16T07:11:44.808Z,100161.59
2023-03-16T07:14:12.812Z,100170.91
2023-03-16T07:16:41.631Z,100169.50
2023-03-16T07:19:11.507Z,100172.97
2023-03-16T07:21:40.872Z,100177.94
2023-03-16T07:24:16.333Z,100172.41
2023-03-16T07:26:46.349Z,100179.84
2023-03-16T07:29:21.952Z,100184.59
2023-03-16T07:31:50.210Z,100179.06
2023-03-16T07:34:21.566Z,100181.34
2023-03-16T07:36:55.237Z,100175.78
2023-03-16T07:39:25.663Z,100185.13
2023-03-16T07:42:01.535Z,100162.13
2023-03-16T07:44:43.478Z,100189.59
2023-03-16T07:47:15.696Z,100191.59
2023-03-16T07:49:45.273Z,100188.59
2023-03-16T07:52:14.582Z,100189.06
2023-03-16T07:54:43.608Z,100193.88
2023-03-16T07:57:14.145Z,100196.97
2023-03-16T07:59:45.024Z,100192.13
2023-03-16T08:02:18.286Z,100193.75
2023-03-16T08:04:47.306Z,100188.16
2023-03-16T08:07:17.096Z,100205.88
2023-03-16T08:09:59.813Z,100198.38
2023-03-16T08:12:34.931Z,100205.75
2023-03-16T08:15:03.056Z,100204.53
2023-03-16T08:17:34.179Z,100206.44
2023-03-16T08:20:08.995Z,100205.75
2023-03-16T08:22:37.498Z,100210.53
2023-03-16T08:25:10.387Z,100204.28
2023-03-16T08:27:42.899Z,100209.13
2023-03-16T08:30:13.049Z,100209.66
2023-03-16T08:32:45.261Z,100206.81
2023-03-16T08:35:16.746Z,100219.22
2023-03-16T08:37:46.240Z,100204.34
2023-03-16T08:40:16.034Z,100204.63
2023-03-16T08:42:46.813Z,100216.91
2023-03-16T08:45:15.262Z,100212.91
2023-03-16T08:47:45.539Z,100219.72
2023-03-16T08:50:15.532Z,100220.09
2023-03-16T08:52:43.519Z,100210.84
2023-03-16T08:55:13.287Z,100215.66
2023-03-16T08:57:41.190Z,100211.97
2023-03-16T09:00:13.839Z,100205.56
2023-03-16T09:02:43.127Z,100206.88
2023-03-16T09:05:12.988Z,100210.53
2023-03-16T09:07:40.863Z,100210.88
2023-03-16T09:10:13.339Z,100212.75
2023-03-16T09:12:42.688Z,100226.63
2023-03-16T09:15:13.935Z,100211.38
2023-03-16T09:17:43.051Z,100219.59
2023-03-16T09:20:22.521Z,100203.34
2023-03-16T09:22:54.568Z,100206.34
2023-03-16T09:25:22.640Z,100214.78
2023-03-16T09:27:50.714Z,100218.28
2023-03-16T09:30:20.096Z,100220.94
2023-03-16T09:32:49.018Z,100210.66
2023-03-16T09:35:17.295Z,100208.25
2023-03-16T09:38:01.038Z,100211.00
2023-03-16T09:40:33.531Z,100209.47
2023-03-16T09:43:19.140Z,100218.06
2023-03-16T09:45:53.849Z,100212.50
2023-03-16T09:48:22.552Z,100224.34
2023-03-16T09:50:52.784Z,100225.91
2023-03-16T09:53:26.814Z,100217.06
2023-03-16T09:55:59.565Z,100224.88
2023-03-16T09:58:28.298Z,100219.22
2023-03-16T10:01:07.645Z,100226.00
2023-03-16T10:04:00.733Z,100227.66
2023-03-16T10:06:29.426Z,100224.38
2023-03-16T10:09:06.976Z,100218.56
2023-03-16T10:11:39.510Z,100237.44
2023-03-16T10:14:17.727Z,100231.44
2023-03-16T10:16:51.495Z,100219.25
2023-03-16T10:19:24.498Z,100233.41
2023-03-16T10:21:57.869Z,100227.94
2023-03-16T10:24:39.398Z,100220.34
2023-03-16T10:27:09.310Z,100221.06
2023-03-16T10:29:38.643Z,100229.56
2023-03-16T10:32:16.487Z,100232.44
2023-03-16T10:34:49.766Z,100227.47
2023-03-16T10:37:17.673Z,100222.84
2023-03-16T10:39:45.647Z,100221.59
2023-03-16T10:42:18.640Z,100230.16
2023-03-16T10:44:46.695Z,100215.22
2023-03-16T10:47:22.786Z,100221.13
2023-03-16T10:49:51.482Z,100230.50
2023-03-16T10:52:24.741Z,100229.63
2023-03-16T10:54:55.967Z,100222.69
2023-03-16T10:57:31.156Z,100212.13
2023-03-16T11:00:15.970Z,100217.41
2023-03-16T11:02:45.750Z,100233.25
2023-03-16T11:05:26.258Z,100234.19
2023-03-16T11:08:00.620Z,100225.78
2023-03-16T11:10:33.344Z,100217.41
2023-03-16T11:13:10.799Z,100216.63
2023-03-16T11:15:45.543Z,100215.06
2023-03-16T11:18:26.807Z,100220.97
2023-03-16T11:20:55.522Z,100227.97
2023-03-16T11:23:31.417Z,100207.94
2023-03-16T11:26:02.913Z,100218.16
2023-03-16T11:28:37.626Z,100210.25
2023-03-16T11:31:16.797Z,100218.78
2023-03-16T11:33:47.195Z,100212.09
2023-03-16T11:36:29.902Z,100224.78
2023-03-16T11:39:09.050Z,100213.13
2023-03-16T11:41:53.451Z,100213.81
2023-03-16T11:44:32.794Z,100203.31
2023-03-16T11:47:07.333Z,100210.06
2023-03-16T11:49:49.531Z,100213.28
2023-03-16T11:52:26.477Z,100201.81
2023-03-16T11:55:07.524Z,100204.47
2023-03-16T11:57:46.994Z,100202.28
2023-03-16T12:00:26.163Z,100204.25
2023-03-16T12:03:14.996Z,100196.97
2023-03-16T12:05:55.153Z,100202.16
2023-03-16T12:08:40.975Z,100182.69
2023-03-16T12:11:14.750Z,100185.19
2023-03-16T12:14:00.339Z,100195.41
2023-03-16T12:16:48.249Z,100201.75
2023-03-16T12:19:22.965Z,100187.47
2023-03-16T12:22:02.557Z,100178.72
2023-03-16T12:24:36.634Z,100185.91
2023-03-16T12:27:06.747Z,100180.31
2023-03-16T12:29:42.841Z,100191.22
2023-03-16T12:32:14.356Z,100189.09
2023-03-16T12:34:48.666Z,100194.44
2023-03-16T12:37:29.539Z,100192.13
2023-03-16T12:40:09.208Z,100187.28
2023-03-16T12:42:49.605Z,100177.47
2023-03-16T12:45:24.626Z,100181.28
2023-03-16T12:48:00.174Z,100172.81
2023-03-16T12:50:28.296Z,100183.13
2023-03-16T12:52:57.611Z,100182.53
2023-03-16T12:55:28.305Z,100179.63
2023-03-16T12:58:02.203Z,100180.03
2023-03-16T13:00:37.736Z,100171.06
2023-03-16T13:03:07.265Z,100168.88
2023-03-16T13:05:37.318Z,100177.66
2023-03-16T13:08:10.782Z,100173.03
2023-03-16T13:10:39.914Z,100176.44
2023-03-16T13:13:13.000Z,100168.56
2023-03-16T13:15:41.511Z,100178.25
2023-03-16T13:18:24.780Z,100168.47
2023-03-16T13:20:58.718Z,100151.84
2023-03-16T13:23:46.786Z,100156.38
2023-03-16T13:26:17.082Z,100160.13
2023-03-16T13:28:51.357Z,100161.84
2023-03-16T13:31:27.237Z,100158.19
2023-03-16T13:33:59.928Z,100173.97
2023-03-16T13:36:29.757Z,100162.44
2023-03-16T13:39:05.451Z,100170.34
2023-03-16T13:41:34.266Z,100171.13
2023-03-16T13:44:02.107Z,100169.78
2023-03-16T13:46:31.672Z,100169.66
2023-03-16T13:49:01.158Z,100168.06
2023-03-16T13:51:32.080Z,100177.69
2023-03-16T13:54:06.348Z,100149.28
2023-03-16T13:56:35.077Z,100158.34
2023-03-16T13:59:03.493Z,100151.22
2023-03-16T14:01:33.229Z,100168.38
2023-03-16T14:04:08.670Z,100167.69
2023-03-16T14:06:37.846Z,100154.16
2023-03-16T14:09:14.028Z,100162.81
2023-03-16T14:11:44.578Z,100165.59
2023-03-16T14:14:16.989Z,100169.03
2023-03-16T14:16:45.666Z,100158.06
2023-03-16T14:19:20.306Z,100152.31
2023-03-16T14:21:48.288Z,100173.06
2023-03-16T14:24:29.828Z,100151.81
2023-03-16T14:26:58.733Z,100156.44
2023-03-16T14:29:30.381Z,100159.81
2023-03-16T14:31:59.898Z,100145.25
2023-03-16T14:34:33.911Z,100154.34
2023-03-16T14:37:12.696Z,100156.22
2023-03-16T14:39:42.336Z,100154.63
2023-03-16T14:42:19.863Z,100171.75
2023-03-16T14:44:48.960Z,100151.84
2023-03-16T14:47:23.671Z,100145.84
2023-03-16T14:49:52.375Z,100149.72
2023-03-16T14:52:27.151Z,100148.50
2023-03-16T14:54:56.811Z,100158.41
2023-03-16T14:57:25.929Z,100159.22
2023-03-16T14:59:53.982Z,100164.97
2023-03-16T15:02:26.643Z,100166.09
2023-03-16T15:04:55.629Z,100166.34
2023-03-16T15:07:26.520Z,100166.03
2023-03-16T15:09:57.332Z,100162.28
2023-03-16T15:12:26.133Z,100163.03
2023-03-16T15:15:11.560Z,100168.53
2023-03-16T15:17:39.491Z,100169.88
2023-03-16T15:20:08.458Z,100177.38
2023-03-16T15:22:38.676Z,100177.75
2023-03-16T15:25:21.304Z,100179.78
2023-03-16T15:27:49.662Z,100183.66
2023-03-16T15:30:19.217Z,100178.66
2023-03-16T15:32:47.623Z,100179.34
2023-03-16T15:35:15.983Z,100182.97
2023-03-16T15:37:43.943Z,100190.00
2023-03-16T15:40:19.326Z,100187.56
2023-03-16T15:42:47.477Z,100188.31
2023-03-16T15:45:18.610Z,100188.31
2023-03-16T15:47:48.437Z,100187.09
2023-03-16T15:50:18.215Z,100181.97
2023-03-16T15:52:48.532Z,100189.94
2023-03-16T15:55:21.609Z,100190.69
2023-03-16T15:57:51.306Z,100194.19
2023-03-16T16:00:29.720Z,100188.44
2023-03-16T16:02:59.174Z,100198.16
2023-03-16T16:05:27.871Z,100193.47
2023-03-16T16:07:56.459Z,100189.56
2023-03-16T16:10:26.911Z,100207.75
2023-03-16T16:12:57.913Z,100196.03
2023-03-16T16:15:29.500Z,100199.19
2023-03-16T16:18:19.721Z,100191.56
2023-03-16T16:20:46.462Z,100201.94
2023-03-16T16:23:14.647Z,100199.88
2023-03-16T16:25:43.992Z,100204.91
2023-03-16T16:28:16.520Z,100202.97
2023-03-16T16:30:44.927Z,100206.78
2023-03-16T16:33:24.540Z,100209.22
2023-03-16T16:35:53.022Z,100203.97
2023-03-16T16:38:21.113Z,100217.59
2023-03-16T16:40:51.227Z,100207.59
2023-03-16T16:43:31.255Z,100218.06
2023-03-16T16:46:00.076Z,100207.34
2023-03-16T16:48:32.967Z,100219.44
2023-03-16T16:51:02.177Z,100224.09
2023-03-16T16:53:31.061Z,100226.22
2023-03-16T16:56:00.487Z,100227.31
2023-03-16T16:58:28.545Z,100230.09
2023-03-16T17:00:58.936Z,100224.59
2023-03-16T17:03:28.950Z,100225.81
2023-03-16T17:05:58.901Z,100223.03
2023-03-16T17:08:27.555Z,100232.59
2023-03-16T17:10:55.788Z,100223.84
2023-03-16T17:13:32.179Z,100237.47
2023-03-16T17:16:00.224Z,100241.47
2023-03-16T17:18:28.614Z,100251.97
2023-03-16T17:20:56.981Z,100254.22
2023-03-16T17:23:31.238Z,100257.19
2023-03-16T17:26:01.762Z,100265.25
2023-03-16T17:28:36.180Z,100262.47
2023-03-16T17:31:04.273Z,100269.75
2023-03-16T17:33:32.336Z,100262.88
2023-03-16T17:36:01.881Z,100261.00
2023-03-16T17:38:29.848Z,100263.16
2023-03-16T17:40:57.864Z,100265.25
2023-03-16T17:43:25.825Z,100264.16
2023-03-16T17:45:55.221Z,100266.31
2023-03-16T17:48:25.451Z,100275.31
2023-03-16T17:50:53.368Z,100274.72
2023-03-16T17:53:21.948Z,100275.81
2023-03-16T17:55:49.982Z,100277.28
2023-03-16T17:58:27.861Z,100279.84
2023-03-16T18:00:58.467Z,100282.94
2023-03-16T18:03:30.002Z,100288.69
2023-03-16T18:05:58.613Z,100293.22
2023-03-16T18:08:28.889Z,100294.75
2023-03-16T18:11:04.452Z,100290.25
2023-03-16T18:13:35.109Z,100307.97
2023-03-16T18:16:06.728Z,100309.50
2023-03-16T18:18:37.778Z,100310.88
2023-03-16T18:21:06.022Z,100310.72
2023-03-16T18:23:35.757Z,100312.31
2023-03-16T18:26:04.446Z,100310.59
2023-03-16T18:28:33.093Z,100318.81
2023-03-16T18:31:01.530Z,100313.50
2023-03-16T18:33:32.798Z,100309.91
2023-03-16T18:36:02.774Z,100309.75
2023-03-16T18:38:33.312Z,100306.78
2023-03-16T18:41:03.116Z,100321.50
2023-03-16T18:43:31.067Z,100334.44
2023-03-16T18:45:58.965Z,100331.56
2023-03-16T18:48:31.343Z,100329.50
2023-03-16T18:50:59.595Z,100316.81
2023-03-16T18:53:29.201Z,100325.97
2023-03-16T18:55:57.834Z,100327.28
2023-03-16T18:58:25.797Z,100328.78
2023-03-16T19:00:56.424Z,100335.22
2023-03-16T19:03:27.562Z,100333.41
2023-03-16T19:05:59.350Z,100332.91
2023-03-16T19:08:29.170Z,100340.66
2023-03-16T19:10:59.412Z,100336.53
2023-03-16T19:13:27.843Z,100340.66
2023-03-16T19:15:57.846Z,100342.84
2023-03-16T19:18:27.064Z,100348.28
2023-03-16T19:20:57.305Z,100347.16
2023-03-16T19:23:29.267Z,100315.75
2023-03-16T19:25:57.951Z,100348.94
2023-03-16T19:28:29.131Z,100341.66
2023-03-16T19:30:57.726Z,100345.25
2023-03-16T19:33:28.058Z,100349.72
2023-03-16T19:35:58.550Z,100357.75
2023-03-16T19:38:27.424Z,100358.31
2023-03-16T19:40:57.807Z,100371.38
2023-03-16T19:43:27.666Z,100367.47
2023-03-16T19:45:56.514Z,100368.84
2023-03-16T19:48:30.390Z,100367.03
2023-03-16T19:51:00.043Z,100366.50
2023-03-16T19:53:27.995Z,100361.34
2023-03-16T19:55:57.082Z,100369.56
2023-03-16T19:58:32.381Z,100378.91
2023-03-16T20:01:01.023Z,100380.28
2023-03-16T20:03:29.432Z,100394.38
2023-03-16T20:05:57.319Z,100390.09
2023-03-16T20:08:28.593Z,100386.97
2023-03-16T20:11:01.871Z,100376.63
2023-03-16T20:13:31.355Z,100390.28
2023-03-16T20:15:59.372Z,100400.66
2023-03-16T20:18:28.709Z,100395.81
2023-03-16T20:20:57.120Z,100397.53
2023-03-16T20:23:28.020Z,100402.50
2023-03-16T20:26:01.370Z,100403.63
2023-03-16T20:28:35.292Z,100387.25
2023-03-16T20:31:03.666Z,100395.44
2023-03-16T20:33:33.335Z,100407.03
2023-03-16T20:36:01.330Z,100411.56
2023-03-16T20:38:30.620Z,100409.69
2023-03-16T20:40:58.856Z,100420.06
2023-03-16T20:43:28.576Z,100420.56
2023-03-16T20:45:58.384Z,100409.41
2023-03-16T20:48:26.386Z,100410.47
2023-03-16T20:50:54.985Z,100410.47
2023-03-16T20:53:23.400Z,100401.72
2023-03-16T20:55:54.564Z,100415.03
2023-03-16T20:58:25.441Z,100405.13
2023-03-16T21:00:55.835Z,100401.88
2023-03-16T21:03:26.753Z,100408.53
2023-03-16T21:05:55.445Z,100422.69
2023-03-16T21:08:23.658Z,100406.38
2023-03-16T21:10:55.049Z,100409.09
2023-03-16T21:13:26.834Z,100411.53
2023-03-16T21:15:57.276Z,100407.13
2023-03-16T21:18:25.427Z,100407.72
2023-03-16T21:20:56.100Z,100401.84
2023-03-16T21:23:24.852Z,100400.72
2023-03-16T21:25:56.785Z,100394.44
2023-03-16T21:28:26.688Z,100382.81
2023-03-16T21:30:56.427Z,100382.38
2023-03-16T21:33:30.042Z,100386.84
2023-03-16T21:35:58.014Z,100387.72
2023-03-16T21:38:26.473Z,100401.72
2023-03-16T21:40:56.739Z,100403.44
2023-03-16T21:43:25.160Z,100392.84
2023-03-16T21:45:54.079Z,100388.75
2023-03-16T21:48:24.842Z,100393.53
2023-03-16T21:50:53.769Z,100400.84
2023-03-16T21:53:24.187Z,100398.25
2023-03-16T21:55:53.377Z,100390.78
2023-03-16T21:58:24.331Z,100396.31
2023-03-16T22:00:53.691Z,100401.25
2023-03-16T22:03:33.007Z,100397.81
2023-03-16T22:06:06.896Z,100417.91
2023-03-16T22:08:35.374Z,100427.34
2023-03-16T22:11:03.308Z,100424.28
2023-03-16T22:13:34.577Z,100412.88
2023-03-16T22:16:03.584Z,100409.44
2023-03-16T22:18:34.145Z,100414.25
2023-03-16T22:21:04.604Z,100409.00
2023-03-16T22:23:34.670Z,100411.09
2023-03-16T22:26:03.266Z,100413.69
2023-03-16T22:28:33.149Z,100409.66
2023-03-16T22:31:03.553Z,100413.81
2023-03-16T22:33:34.716Z,100418.53
2023-03-16T22:36:08.186Z,100404.78
2023-03-16T22:38:36.769Z,100413.44
2023-03-16T22:41:04.883Z,100413.47
2023-03-16T22:43:36.656Z,100411.09
2023-03-16T22:46:04.918Z,100415.50
2023-03-16T22:48:33.116Z,100406.16
2023-03-16T22:51:04.730Z,100399.25
2023-03-16T22:53:37.881Z,100408.66
2023-03-16T22:56:06.574Z,100391.19
2023-03-16T22:58:39.000Z,100398.53
2023-03-16T23:01:17.154Z,100394.53
2023-03-16T23:03:45.957Z,100409.34
2023-03-16T23:06:18.116Z,100406.00
2023-03-16T23:08:46.400Z,100417.75
2023-03-16T23:11:23.675Z,100400.44
2023-03-16T23:13:54.195Z,100392.84
2023-03-16T23:16:24.600Z,100408.41
2023-03-16T23:18:53.217Z,100416.69
2023-03-16T23:21:23.001Z,100413.66
2023-03-16T23:24:02.953Z,100411.13
2023-03-16T23:26:32.060Z,100417.13
2023-03-16T23:29:01.650Z,100415.31
2023-03-16T23:31:30.678Z,100408.66
2023-03-16T23:33:58.972Z,100431.19
2023-03-16T23:36:27.211Z,100417.00
2023-03-16T23:38:55.178Z,100416.44
2023-03-16T23:41:24.813Z,100411.72
2023-03-16T23:43:54.118Z,100410.56
2023-03-16T23:46:25.826Z,100420.13
2023-03-16T23:48:56.476Z,100423.56
2023-03-16T23:51:28.219Z,100408.19
2023-03-16T23:53:57.387Z,100423.56
2023-03-16T23:56:26.267Z,100409.84
2023-03-16T23:58:54.764Z,100420.13
